Time;durP1;ratioP1;P1;durP2;ratioP2;P2;SDS_P1;SDS_P2;PMS_P1;PMS_P2;Temp;Humidity;BMP_temperature;BMP_pressure;BME280_temperature;BME280_humidity;BME280_pressure;Samples;Min_cycle;Max_cycle;Signal;HPM_P1;HPM_P2
2022/08/06 00:00:51;;;;;;;5.28;3.70;;;;;;;19.90;64.99;94448.66;5013372;28;20232;-87
2022/08/06 00:03:18;;;;;;;5.18;3.35;;;;;;;20.00;65.59;94463.59;5012774;28;20213;-88
2022/08/06 00:05:45;;;;;;;5.55;3.13;;;;;;;19.70;66.16;94419.97;5014148;28;20225;-87
2022/08/06 00:08:12;;;;;;;6.03;3.70;;;;;;;20.05;66.71;94468.72;5013572;28;20239;-87
2022/08/06 00:10:39;;;;;;;6.90;3.60;;;;;;;19.93;66.80;94455.34;5012758;28;20209;-88
2022/08/06 00:13:07;;;;;;;3.78;2.95;;;;;;;19.96;67.15;94473.78;5013739;28;20223;-88
2022/08/06 00:15:35;;;;;;;4.50;3.20;;;;;;;19.97;66.02;94475.38;5013057;28;20256;-88
2022/08/06 00:18:02;;;;;;;4.82;3.58;;;;;;;19.73;65.06;94432.94;5013350;28;20234;-88
2022/08/06 00:20:29;;;;;;;6.07;3.53;;;;;;;19.82;65.38;94447.06;5013268;28;20213;-87
2022/08/06 00:22:56;;;;;;;5.97;2.88;;;;;;;19.87;65.55;94477.72;5012920;28;20208;-89
2022/08/06 00:25:23;;;;;;;4.80;2.88;;;;;;;19.67;65.82;94451.78;5013010;28;20251;-87
2022/08/06 00:27:50;;;;;;;4.07;3.08;;;;;;;19.68;66.04;94464.31;5012227;28;20203;-87
2022/08/06 00:30:18;;;;;;;4.30;2.97;;;;;;;19.60;66.81;94461.94;5012656;28;20284;-88
2022/08/06 00:32:47;;;;;;;4.15;3.03;;;;;;;19.64;68.00;94474.53;5013255;28;20197;-87
2022/08/06 00:35:14;;;;;;;6.72;3.22;;;;;;;19.21;68.34;94434.34;5013102;28;20690;-87
2022/08/06 00:37:41;;;;;;;3.67;2.95;;;;;;;19.33;67.86;94453.22;5012695;28;20215;-87
2022/08/06 00:40:09;;;;;;;3.65;3.05;;;;;;;19.35;69.21;94478.34;5012858;28;20212;-88
2022/08/06 00:42:36;;;;;;;5.43;3.47;;;;;;;19.27;69.03;94482.25;5012780;28;20671;-88
2022/08/06 00:45:04;;;;;;;8.10;3.80;;;;;;;19.12;68.68;94462.97;5013076;28;20197;-88
2022/08/06 00:47:32;;;;;;;5.05;3.83;;;;;;;19.25;68.52;94479.88;5012325;28;20655;-88
2022/08/06 00:49:59;;;;;;;4.32;3.05;;;;;;;19.18;67.79;94477.88;5012835;28;20197;-88
2022/08/06 00:52:26;;;;;;;4.72;3.30;;;;;;;18.84;68.40;94431.84;5012945;28;20200;-88
2022/08/06 00:54:53;;;;;;;5.05;3.30;;;;;;;18.82;68.74;94437.72;5013193;28;20209;-88
2022/08/06 00:57:19;;;;;;;4.13;3.22;;;;;;;18.62;68.79;94428.19;5012435;28;20567;-88
2022/08/06 00:59:46;;;;;;;4.60;2.95;;;;;;;18.69;69.40;94447.44;5013241;28;20197;-87
2022/08/06 01:02:14;;;;;;;7.20;2.97;;;;;;;18.69;68.84;94442.75;5017501;28;20648;-88
2022/08/06 01:04:42;;;;;;;3.33;2.80;;;;;;;19.03;68.49;94480.94;5016858;28;20205;-88
2022/08/06 01:07:09;;;;;;;4.55;3.60;;;;;;;18.74;68.40;94425.09;5016400;28;20233;-89
2022/08/06 01:09:36;;;;;;;5.47;2.72;;;;;;;19.09;67.44;94471.19;5012928;28;20201;-88
2022/08/06 01:12:03;;;;;;;7.80;3.67;;;;;;;18.87;67.71;94426.34;5011953;28;20205;-88
2022/08/06 01:14:30;;;;;;;5.18;3.15;;;;;;;19.20;67.43;94473.97;5012299;28;20580;-88
2022/08/06 01:17:02;;;;;;;6.20;3.47;;;;;;;19.03;68.31;94440.53;5011934;28;20209;-88
2022/08/06 01:19:47;;;;;;;4.85;3.47;;;;;;;19.06;69.24;94467.22;5012070;28;20204;-89
2022/08/06 01:22:40;;;;;;;4.55;3.25;;;;;;;19.02;69.06;94471.91;5012301;28;20761;-89
2022/08/06 01:25:24;;;;;;;5.57;3.63;;;;;;;18.90;69.25;94452.25;5011778;28;20193;-89
2022/08/06 01:27:59;;;;;;;5.07;3.35;;;;;;;18.92;69.08;94453.44;5021750;28;20205;-89
2022/08/06 01:30:32;;;;;;;4.88;3.22;;;;;;;18.98;68.97;94465.63;5015594;28;20192;-88
2022/08/06 01:33:03;;;;;;;4.18;3.20;;;;;;;18.70;68.60;94416.09;5027686;28;20213;-88
2022/08/06 01:35:35;;;;;;;4.85;3.13;;;;;;;18.91;68.68;94443.63;5031997;28;20204;-87
2022/08/06 01:38:14;;;;;;;4.07;3.00;;;;;;;18.89;68.73;94445.97;5029883;28;20203;-89
2022/08/06 01:40:43;;;;;;;5.03;2.92;;;;;;;18.93;68.87;94441.28;5014524;28;20248;-89
2022/08/06 01:43:16;;;;;;;4.78;3.40;;;;;;;18.84;69.35;94454.59;5013210;28;20201;-88
2022/08/06 01:45:43;;;;;;;4.70;3.60;;;;;;;18.99;69.22;94461.72;5013732;28;20510;-88
2022/08/06 01:48:15;;;;;;;5.65;3.70;;;;;;;18.61;68.90;94396.41;5013119;28;20231;-88
2022/08/06 01:50:46;;;;;;;4.93;3.65;;;;;;;18.76;68.70;94420.81;5013593;28;20203;-89
2022/08/06 01:53:17;;;;;;;5.28;3.65;;;;;;;18.72;68.84;94424.72;5000483;28;20287;-88
2022/08/06 01:55:48;;;;;;;5.18;3.35;;;;;;;18.83;68.98;94442.03;5012368;28;20196;-88
2022/08/06 01:58:19;;;;;;;6.85;3.55;;;;;;;18.90;69.50;94461.25;5012519;28;20205;-88
2022/08/06 02:00:51;;;;;;;6.28;3.40;;;;;;;18.94;69.19;94453.84;5009602;28;20236;-88
2022/08/06 02:03:23;;;;;;;4.57;3.38;;;;;;;18.77;69.37;94438.06;5002645;28;20201;-89
2022/08/06 02:05:54;;;;;;;4.63;3.20;;;;;;;18.63;69.62;94422.31;5011966;28;20189;-88
2022/08/06 02:08:24;;;;;;;5.35;3.80;;;;;;;18.84;69.70;94451.06;5011754;28;20209;-88
2022/08/06 02:10:52;;;;;;;5.43;3.55;;;;;;;18.61;70.09;94424.66;5011882;28;20189;-89
2022/08/06 02:13:23;;;;;;;5.05;3.08;;;;;;;18.64;70.32;94429.38;5012038;28;20217;-88
2022/08/06 02:15:52;;;;;;;4.05;3.10;;;;;;;18.64;70.26;94434.84;4999681;28;20735;-88
2022/08/06 02:18:23;;;;;;;5.90;3.80;;;;;;;18.60;69.67;94441.47;5011570;28;20652;-88
2022/08/06 02:20:53;;;;;;;4.35;3.35;;;;;;;18.45;70.40;94416.69;5011521;28;20193;-88
2022/08/06 02:23:23;;;;;;;5.13;3.53;;;;;;;18.61;70.57;94432.09;5011499;28;20205;-87
2022/08/06 02:25:54;;;;;;;6.05;3.55;;;;;;;18.62;70.48;94436.41;5011402;28;20219;-88
2022/08/06 02:28:24;;;;;;;6.78;3.53;;;;;;;18.52;70.41;94426.13;5011331;28;20338;-88
2022/08/06 02:30:54;;;;;;;3.65;2.78;;;;;;;18.35;69.91;94389.97;5011003;28;20208;-88
2022/08/06 02:33:21;;;;;;;4.40;3.35;;;;;;;18.50;70.37;94418.28;5011152;28;20205;-88
2022/08/06 02:35:55;;;;;;;9.50;3.80;;;;;;;18.25;70.57;94384.44;5011175;28;20212;-88
2022/08/06 02:38:29;;;;;;;4.57;3.35;;;;;;;18.54;70.94;94440.25;5010959;28;20209;-88
2022/08/06 02:41:00;;;;;;;4.10;3.13;;;;;;;18.40;69.63;94414.31;5014919;28;20232;-88
2022/08/06 02:43:33;;;;;;;4.45;3.28;;;;;;;18.40;70.13;94414.31;5002796;28;20339;-88
2022/08/06 02:46:08;;;;;;;5.13;3.30;;;;;;;18.58;70.41;94424.63;5014517;28;20200;-88
2022/08/06 02:48:42;;;;;;;6.57;3.45;;;;;;;18.29;69.88;94391.53;5014514;28;20192;-87
2022/08/06 02:51:14;;;;;;;5.03;3.33;;;;;;;18.31;70.65;94422.06;5014704;28;20201;-86
2022/08/06 02:53:52;;;;;;;4.88;3.35;;;;;;;18.45;70.58;94449.59;5014366;28;20261;-87
2022/08/06 02:56:20;;;;;;;5.45;3.55;;;;;;;18.35;70.61;94431.13;5014785;28;20220;-87
2022/08/06 02:58:52;;;;;;;4.38;3.47;;;;;;;18.03;70.71;94399.97;5014838;28;20216;-87
2022/08/06 03:01:23;;;;;;;5.05;3.83;;;;;;;18.18;69.96;94406.34;5014269;28;20205;-87
2022/08/06 03:03:53;;;;;;;5.28;3.65;;;;;;;18.41;70.23;94437.03;5013991;28;20544;-87
2022/08/06 03:06:22;;;;;;;4.63;3.35;;;;;;;18.44;70.12;94448.06;5014823;28;20211;-88
2022/08/06 03:08:53;;;;;;;3.95;3.20;;;;;;;18.10;70.50;94411.75;5014785;28;20216;-89
2022/08/06 03:11:22;;;;;;;4.35;3.00;;;;;;;18.27;70.46;94465.16;5014831;28;20193;-88
2022/08/06 03:13:52;;;;;;;5.88;3.97;;;;;;;18.32;70.81;94462.03;5016592;28;20681;-88
2022/08/06 03:16:21;;;;;;;5.82;3.55;;;;;;;18.39;70.50;94461.31;5018363;28;20201;-88
2022/08/06 03:18:50;;;;;;;3.95;2.85;;;;;;;18.26;70.83;94436.16;5014554;28;20216;-88
2022/08/06 03:21:21;;;;;;;9.70;3.67;;;;;;;18.22;71.04;94438.06;5006708;28;20216;-88
2022/08/06 03:23:51;;;;;;;5.07;3.72;;;;;;;18.43;71.20;94471.16;5020038;28;20205;-88
2022/08/06 03:26:18;;;;;;;8.02;3.40;;;;;;;18.13;71.43;94426.66;5015158;28;20565;-88
2022/08/06 03:28:46;;;;;;;6.25;4.13;;;;;;;18.11;71.01;94423.50;5015388;28;20231;-88
2022/08/06 03:31:15;;;;;;;5.07;4.05;;;;;;;18.35;71.36;94444.84;5015042;28;20298;-87
2022/08/06 03:33:42;;;;;;;4.80;3.30;;;;;;;18.60;70.66;94455.22;5001578;28;20216;-87
2022/08/06 03:36:11;;;;;;;6.53;3.92;;;;;;;18.81;70.41;94447.91;5001223;28;20198;-87
2022/08/06 03:38:41;;;;;;;5.28;3.63;;;;;;;19.10;69.22;94429.59;5008228;28;20217;-88
2022/08/06 03:41:10;;;;;;;7.75;4.22;;;;;;;19.71;67.98;94452.56;5007675;28;20679;-89
2022/08/06 03:43:37;;;;;;;4.75;3.50;;;;;;;20.13;66.43;94435.31;5002646;28;20204;-88
2022/08/06 03:46:07;;;;;;;5.97;4.05;;;;;;;20.61;64.96;94415.66;5007361;28;20300;-89
2022/08/06 03:48:39;;;;;;;4.53;3.25;;;;;;;21.39;63.25;94448.47;5004148;28;20224;-89
2022/08/06 03:51:17;;;;;;;5.30;4.80;;;;;;;21.61;62.14;94410.53;5015091;28;20251;-87
2022/08/06 03:53:46;;;;;;;6.30;4.97;;;;;;;21.87;60.63;94420.22;5004733;28;20220;-88
2022/08/06 03:56:23;;;;;;;4.72;3.70;;;;;;;22.46;59.94;94443.03;5017778;28;20234;-88
2022/08/06 03:58:52;;;;;;;5.82;5.10;;;;;;;23.26;57.97;94445.38;5027009;28;20209;-87
2022/08/06 04:01:27;;;;;;;7.30;4.95;;;;;;;23.83;55.45;94405.94;5030575;28;20211;-88
2022/08/06 04:03:56;;;;;;;5.30;3.45;;;;;;;24.47;52.83;94426.31;5029497;28;20192;-88
2022/08/06 04:06:25;;;;;;;5.38;4.30;;;;;;;25.06;51.80;94440.31;5029415;28;20212;-88
2022/08/06 04:08:57;;;;;;;5.35;4.07;;;;;;;25.38;50.41;94412.75;5029849;28;20225;-88
2022/08/06 04:11:25;;;;;;;5.25;4.55;;;;;;;26.06;48.28;94414.06;5029179;28;20596;-89
2022/08/06 04:13:53;;;;;;;5.53;4.32;;;;;;;26.24;47.89;94421.97;5029694;28;20236;-89
2022/08/06 04:16:20;;;;;;;4.88;4.28;;;;;;;26.31;47.35;94438.50;5028496;28;20232;-88
2022/08/06 04:18:49;;;;;;;4.90;4.40;;;;;;;27.01;46.18;94446.28;5038291;28;20206;-88
2022/08/06 04:21:20;;;;;;;6.25;4.03;;;;;;;27.44;45.11;94446.69;5038443;28;20189;-89
2022/08/06 04:23:48;;;;;;;6.25;4.80;;;;;;;28.00;43.32;94449.06;5037936;28;20240;-90
2022/08/06 04:26:19;;;;;;;7.90;4.60;;;;;;;27.65;43.98;94450.09;5037746;28;20197;-89
2022/08/06 04:28:48;;;;;;;6.20;4.50;;;;;;;27.83;43.54;94428.09;5024859;28;20212;-89
2022/08/06 04:31:21;;;;;;;5.07;4.30;;;;;;;28.80;41.62;94438.56;5037605;28;20236;-89
2022/08/06 04:33:49;;;;;;;8.27;4.60;;;;;;;28.02;42.74;94418.72;5038070;28;20253;-89
2022/08/06 04:36:19;;;;;;;7.22;4.70;;;;;;;28.21;42.17;94420.56;5030419;28;20205;-88
2022/08/06 04:38:46;;;;;;;6.50;4.80;;;;;;;28.28;42.33;94420.34;5012871;28;20315;-88
2022/08/06 04:41:14;;;;;;;6.30;4.85;;;;;;;28.80;41.03;94438.56;5012487;28;20574;-88
2022/08/06 04:43:42;;;;;;;5.18;4.47;;;;;;;29.45;39.56;94437.91;5012299;28;20197;-89
2022/08/06 04:46:17;;;;;;;6.35;5.20;;;;;;;31.00;37.01;94446.25;5012723;28;20204;-89
2022/08/06 04:48:45;;;;;;;6.13;5.20;;;;;;;31.31;36.42;94460.91;5012282;28;20612;-89
2022/08/06 04:51:13;;;;;;;6.10;4.70;;;;;;;31.47;35.66;94451.44;5012105;28;20651;-89
2022/08/06 04:53:42;;;;;;;5.60;5.10;;;;;;;31.52;36.04;94442.41;5012926;28;20205;-89
2022/08/06 04:56:10;;;;;;;6.03;5.10;;;;;;;32.23;35.49;94455.25;5012327;28;20256;-89
2022/08/06 04:58:37;;;;;;;7.75;5.25;;;;;;;31.84;35.15;94451.44;5013037;28;20212;-89
2022/08/06 05:01:38;;;;;;;5.93;5.00;;;;;;;32.96;34.14;94454.94;5012403;28;20208;-89
2022/08/06 05:04:09;;;;;;;6.28;5.03;;;;;;;32.44;33.94;94477.44;5013124;28;20251;-89
2022/08/06 05:10:06;;;;;;;6.15;5.55;;;;;;;33.34;32.16;94428.97;4953628;28;20251;-89
2022/08/06 05:12:37;;;;;;;7.15;5.43;;;;;;;33.31;32.20;94430.69;5021887;28;20219;-89
2022/08/06 05:15:10;;;;;;;7.45;5.20;;;;;;;32.95;33.06;94437.31;5017405;28;20235;-89
2022/08/06 05:17:42;;;;;;;6.40;5.50;;;;;;;32.94;32.97;94430.13;5012856;28;20193;-89
2022/08/06 05:20:15;;;;;;;7.10;5.30;;;;;;;33.48;32.81;94442.28;5012946;28;20244;-89
2022/08/06 05:22:45;;;;;;;6.47;5.10;;;;;;;35.13;31.11;94438.38;5013358;28;20310;-89
2022/08/06 05:25:55;;;;;;;8.52;5.63;;;;;;;34.55;30.63;94440.88;5012411;28;20201;-89
2022/08/06 05:28:24;;;;;;;5.75;5.15;;;;;;;34.11;32.11;94440.13;5004574;28;20311;-89
2022/08/06 05:30:53;;;;;;;6.15;5.28;;;;;;;35.00;30.44;94458.44;5012863;28;20213;-90
2022/08/06 05:34:02;;;;;;;8.23;5.80;;;;;;;35.38;29.58;94479.22;5012385;28;20205;-89
2022/08/06 05:36:29;;;;;;;6.10;5.50;;;;;;;35.68;29.09;94466.47;5007480;28;20207;-89
2022/08/06 05:38:56;;;;;;;5.90;5.30;;;;;;;35.20;29.78;94475.34;5011622;28;20605;-90
2022/08/06 05:41:23;;;;;;;7.15;5.43;;;;;;;35.14;30.14;94457.59;5012349;28;20219;-89
2022/08/06 05:43:52;;;;;;;6.18;4.95;;;;;;;35.68;29.26;94483.41;5012473;28;20287;-90
2022/08/06 05:46:21;;;;;;;5.70;5.20;;;;;;;35.90;28.62;94460.34;5011533;28;20208;-90
2022/08/06 05:48:54;;;;;;;6.57;5.63;;;;;;;35.05;30.16;94477.47;5011635;28;20225;-89
2022/08/06 05:51:28;;;;;;;6.38;5.45;;;;;;;34.23;30.58;94436.22;5011929;28;20223;-89
2022/08/06 05:54:02;;;;;;;7.65;5.50;;;;;;;35.14;29.98;94454.00;5012203;28;20201;-89
2022/08/06 05:56:34;;;;;;;5.82;5.28;;;;;;;35.24;30.02;94422.41;4999617;28;20207;-89
2022/08/06 05:59:07;;;;;;;6.18;5.57;;;;;;;35.77;29.31;94457.91;5011530;28;20754;-89
2022/08/06 06:01:36;;;;;;;6.75;5.78;;;;;;;34.41;30.58;94472.63;5012121;28;20197;-89
2022/08/06 06:04:04;;;;;;;8.80;5.45;;;;;;;35.72;28.85;94472.69;5012006;28;20208;-89
2022/08/06 06:06:32;;;;;;;6.15;5.20;;;;;;;35.20;29.68;94466.91;5011767;28;20227;-89
2022/08/06 06:08:59;;;;;;;6.88;5.80;;;;;;;34.73;29.99;94444.69;5011124;28;20227;-89
2022/08/06 06:11:27;;;;;;;7.05;5.35;;;;;;;34.09;31.33;94459.50;5011909;28;20204;-88
2022/08/06 06:13:55;;;;;;;6.32;5.55;;;;;;;34.50;30.92;94444.38;5012614;28;20325;-89
2022/08/06 06:16:28;;;;;;;5.53;5.00;;;;;;;34.63;30.28;94423.56;5015662;28;20240;-89
2022/08/06 06:19:15;;;;;;;7.75;5.80;;;;;;;35.35;29.85;94449.97;5015803;28;20201;-89
2022/08/06 06:21:49;;;;;;;6.32;5.72;;;;;;;34.39;31.11;94444.19;5015347;28;20212;-89
2022/08/06 06:24:22;;;;;;;6.15;5.30;;;;;;;34.17;31.73;94440.97;5015846;28;20251;-89
2022/08/06 06:26:55;;;;;;;6.88;5.72;;;;;;;35.38;30.25;94459.47;5015264;28;20192;-88
2022/08/06 06:29:35;;;;;;;7.75;5.82;;;;;;;33.98;31.66;94448.06;5015119;28;20221;-88
2022/08/06 06:32:09;;;;;;;5.72;5.20;;;;;;;34.34;31.66;94464.56;5002360;28;20203;-89
2022/08/06 06:34:51;;;;;;;5.30;4.80;;;;;;;34.90;30.60;94454.19;5015402;28;20201;-89
2022/08/06 06:37:30;;;;;;;6.10;5.50;;;;;;;36.37;29.24;94425.16;5015568;28;20264;-88
2022/08/06 06:40:14;;;;;;;5.82;5.22;;;;;;;35.75;29.06;94429.44;5014997;28;20204;-89
2022/08/06 06:42:47;;;;;;;5.60;5.10;;;;;;;36.06;29.27;94450.53;5015074;28;20286;-88
2022/08/06 06:45:19;;;;;;;6.13;4.95;;;;;;;35.58;29.09;94422.81;5015634;28;20208;-88
2022/08/06 06:47:53;;;;;;;9.45;5.10;;;;;;;36.28;29.32;94436.63;5014295;28;20223;-89
2022/08/06 06:50:25;;;;;;;6.03;5.35;;;;;;;36.98;28.07;94419.97;5015355;28;20675;-88
2022/08/06 06:52:53;;;;;;;6.18;5.57;;;;;;;35.90;28.39;94421.66;5014432;28;20264;-88
2022/08/06 06:55:26;;;;;;;6.40;5.13;;;;;;;36.73;27.85;94428.53;5015167;28;20209;-88
2022/08/06 06:58:26;;;;;;;6.10;4.45;;;;;;;36.60;27.74;94426.13;5015160;28;20567;-92
2022/08/06 07:00:55;;;;;;;5.90;5.30;;;;;;;37.30;27.48;94415.00;5007513;28;20240;-89
2022/08/06 07:03:27;;;;;;;6.40;4.25;;;;;;;37.45;27.32;94414.03;5014665;28;20640;-88
2022/08/06 07:05:57;;;;;;;5.20;4.70;;;;;;;36.67;27.99;94397.41;5014615;28;20232;-88
2022/08/06 07:08:27;;;;;;;5.65;4.88;;;;;;;36.58;29.17;94437.91;5015863;28;20217;-88
2022/08/06 07:10:55;;;;;;;7.10;5.07;;;;;;;35.87;29.21;94405.72;5001963;28;20216;-89
2022/08/06 07:13:24;;;;;;;5.47;4.38;;;;;;;36.32;28.90;94434.38;5014636;28;20514;-89
2022/08/06 07:15:53;;;;;;;6.40;4.32;;;;;;;36.38;28.32;94392.84;5015034;28;20688;-89
2022/08/06 07:18:22;;;;;;;5.22;3.90;;;;;;;37.07;28.76;94421.78;5014277;28;20216;-89
2022/08/06 07:20:50;;;;;;;5.32;4.15;;;;;;;36.65;28.22;94414.84;5014739;28;20200;-89
2022/08/06 07:23:20;;;;;;;5.72;4.95;;;;;;;36.35;28.70;94413.63;5014249;28;20273;-92
2022/08/06 07:25:50;;;;;;;6.75;4.75;;;;;;;35.96;28.61;94419.66;5013692;28;20205;-90
2022/08/06 07:28:18;;;;;;;5.35;4.45;;;;;;;35.71;29.48;94392.19;5015565;28;20216;-89
2022/08/06 07:30:47;;;;;;;5.50;4.70;;;;;;;36.58;28.31;94406.84;5014500;28;20291;-90
2022/08/06 07:33:15;;;;;;;4.90;4.40;;;;;;;35.42;29.96;94393.16;5014724;28;20208;-89
2022/08/06 07:35:48;;;;;;;5.53;4.18;;;;;;;36.55;29.42;94419.16;5013840;28;20205;-90
2022/08/06 07:38:19;;;;;;;4.40;4.00;;;;;;;35.34;29.82;94396.94;5014638;28;20216;-91
2022/08/06 07:40:51;;;;;;;4.35;3.95;;;;;;;34.46;30.84;94415.66;5014566;28;20197;-90
2022/08/06 07:43:22;;;;;;;6.35;4.07;;;;;;;33.91;31.34;94420.31;5013616;28;20656;-93
2022/08/06 07:45:55;;;;;;;4.95;4.45;;;;;;;33.53;32.08;94411.47;5008945;28;20711;-93
2022/08/06 07:48:27;;;;;;;4.50;4.10;;;;;;;32.99;32.33;94364.94;5002357;28;20243;-91
2022/08/06 07:51:03;;;;;;;4.03;3.67;;;;;;;34.24;31.67;94404.81;5014031;28;20212;-94
2022/08/06 07:53:33;;;;;;;8.25;5.78;;;;;;;34.76;30.72;94387.44;5001338;28;20574;-91
2022/08/06 07:56:11;;;;;;;5.80;4.43;;;;;;;35.19;29.70;94380.06;5013672;28;20647;-95
2022/08/06 07:58:43;;;;;;;5.75;4.35;;;;;;;36.11;28.50;94413.88;5004648;28;20192;-94
2022/08/06 08:01:17;;;;;;;4.47;4.07;;;;;;;36.03;29.39;94390.22;5004415;28;20236;-93
2022/08/06 08:06:33;;;;;;;5.22;3.95;;;;;;;34.34;30.87;94404.72;5007103;28;20193;-90
2022/08/06 08:09:05;;;;;;;5.30;4.47;;;;;;;34.25;31.41;94363.38;5009649;28;20235;-90
2022/08/06 08:11:33;;;;;;;3.97;3.60;;;;;;;34.18;32.62;94363.78;5003726;28;20204;-92
2022/08/06 08:14:03;;;;;;;5.40;4.60;;;;;;;34.24;32.23;94404.03;5003680;28;20229;-90
2022/08/06 08:16:30;;;;;;;5.15;4.45;;;;;;;34.05;32.57;94403.47;5007846;28;20507;-92
2022/08/06 08:19:04;;;;;;;5.85;4.40;;;;;;;32.33;33.89;94392.28;5006749;28;20201;-92
2022/08/06 08:21:31;;;;;;;7.43;4.63;;;;;;;33.24;32.35;94368.47;5011683;28;20208;-93
2022/08/06 08:23:58;;;;;;;6.78;4.63;;;;;;;34.03;31.77;94388.34;5003289;28;20680;-95
2022/08/06 08:26:29;;;;;;;4.60;4.20;;;;;;;34.36;31.01;94405.78;5006640;28;20644;-91
2022/08/06 08:28:56;;;;;;;4.28;3.63;;;;;;;35.17;29.88;94394.66;4999636;28;20935;-93
2022/08/06 08:31:23;;;;;;;3.88;3.50;;;;;;;35.37;29.55;94396.72;5004493;28;20544;-93
2022/08/06 08:33:50;;;;;;;4.22;3.42;;;;;;;33.93;30.01;94389.69;5014275;28;20216;-93
2022/08/06 08:36:17;;;;;;;3.40;3.10;;;;;;;34.89;29.78;94385.06;5014282;28;20213;-93
2022/08/06 08:38:44;;;;;;;3.42;3.13;;;;;;;34.23;29.96;94394.03;5014011;28;20597;-95
2022/08/06 08:41:18;;;;;;;3.45;3.15;;;;;;;32.82;31.83;94361.00;5014115;28;20204;-93
2022/08/06 08:43:53;;;;;;;4.13;2.85;;;;;;;33.07;32.59;94387.81;5013783;28;20220;-92
2022/08/06 08:46:21;;;;;;;3.25;2.95;;;;;;;33.13;31.17;94364.19;5009447;28;20257;-93
2022/08/06 08:48:49;;;;;;;3.42;3.03;;;;;;;32.61;31.34;94376.09;5005350;28;20232;-92
2022/08/06 08:51:17;;;;;;;4.45;3.63;;;;;;;32.94;31.57;94402.06;5013514;28;20211;-93
2022/08/06 08:53:49;;;;;;;3.50;3.20;;;;;;;32.53;31.93;94395.28;5020112;28;20205;-92
2022/08/06 08:56:21;;;;;;;3.70;3.30;;;;;;;32.75;31.60;94389.44;5022601;28;20203;-95
2022/08/06 08:59:00;;;;;;;3.40;3.10;;;;;;;33.13;31.63;94367.00;5024772;28;20296;-95
2022/08/06 09:01:27;;;;;;;3.60;3.25;;;;;;;33.07;32.32;94368.94;5015113;28;20218;-93
2022/08/06 09:03:57;;;;;;;4.00;3.28;;;;;;;33.48;31.02;94397.31;5014687;28;20212;-92
2022/08/06 09:06:28;;;;;;;4.22;3.00;;;;;;;33.85;31.36;94362.00;5013575;28;20299;-93
2022/08/06 09:09:03;;;;;;;3.15;2.83;;;;;;;33.29;30.70;94379.06;5006237;28;20232;-90
2022/08/06 09:11:31;;;;;;;2.70;2.50;;;;;;;32.86;30.49;94353.16;5009748;28;20505;-94
2022/08/06 09:14:01;;;;;;;4.75;2.60;;;;;;;32.21;31.06;94396.06;5008091;28;20245;-92
2022/08/06 09:16:36;;;;;;;2.50;2.30;;;;;;;31.92;31.24;94383.38;5006501;28;20220;-92
2022/08/06 09:19:05;;;;;;;3.13;2.83;;;;;;;31.54;32.51;94385.94;5013107;28;20239;-91
2022/08/06 09:21:35;;;;;;;4.10;3.45;;;;;;;31.79;32.45;94361.16;5012864;28;20207;-92
2022/08/06 09:24:02;;;;;;;5.15;3.35;;;;;;;31.87;31.16;94381.19;5012345;28;20315;-92
2022/08/06 09:26:33;;;;;;;3.78;3.13;;;;;;;31.79;31.45;94346.38;5007919;28;20553;-92
2022/08/06 09:29:02;;;;;;;2.80;2.60;;;;;;;31.87;32.16;94355.19;5012856;28;20316;-93
2022/08/06 09:31:29;;;;;;;3.58;2.78;;;;;;;32.02;31.81;94356.09;5014905;28;20201;-93
2022/08/06 09:33:59;;;;;;;8.15;3.35;;;;;;;31.73;32.18;94385.44;5014803;28;20216;-95
2022/08/06 09:36:28;;;;;;;3.67;3.38;;;;;;;31.79;32.62;94355.56;5013764;28;20228;-93
2022/08/06 09:38:58;;;;;;;3.08;2.80;;;;;;;31.79;32.31;94366.75;5013203;28;20255;-93
2022/08/06 09:41:28;;;;;;;3.65;3.35;;;;;;;32.39;31.63;94374.31;5009814;28;20244;-92
2022/08/06 09:43:58;;;;;;;3.03;2.72;;;;;;;32.91;30.61;94363.75;5004737;28;20303;-93
2022/08/06 09:46:40;;;;;;;3.22;2.90;;;;;;;32.60;31.31;94380.13;5007080;28;20209;-93
2022/08/06 09:49:10;;;;;;;3.63;3.20;;;;;;;31.66;31.93;94346.56;5011501;28;20311;-91
2022/08/06 09:51:37;;;;;;;4.07;3.67;;;;;;;32.05;31.35;94366.34;5012936;28;20209;-92
2022/08/06 09:54:12;;;;;;;3.70;3.22;;;;;;;32.54;30.32;94380.00;5011428;28;20215;-92
2022/08/06 09:56:43;;;;;;;3.40;3.00;;;;;;;33.35;29.83;94366.66;5012648;28;20231;-93
2022/08/06 09:59:12;;;;;;;3.78;3.20;;;;;;;33.39;29.81;94352.44;5011260;28;20768;-93
2022/08/06 10:01:44;;;;;;;4.22;2.83;;;;;;;32.83;30.20;94370.97;5011826;28;20696;-91
2022/08/06 10:04:24;;;;;;;3.45;3.15;;;;;;;32.94;30.32;94359.97;5008138;28;20209;-92
2022/08/06 10:06:55;;;;;;;3.38;3.08;;;;;;;33.45;29.86;94361.75;5005176;28;20201;-93
2022/08/06 10:09:23;;;;;;;3.45;3.15;;;;;;;33.50;29.95;94363.88;5011428;28;20586;-91
2022/08/06 10:11:51;;;;;;;3.45;3.13;;;;;;;32.56;30.39;94326.22;5012067;28;20608;-92
2022/08/06 10:14:25;;;;;;;3.15;2.85;;;;;;;32.79;30.88;94325.50;5012245;28;20225;-93
2022/08/06 10:17:07;;;;;;;3.35;2.85;;;;;;;33.47;29.53;94345.19;5011824;28;20575;-92
2022/08/06 10:19:35;;;;;;;3.38;3.00;;;;;;;33.36;29.25;94331.72;5011769;28;20247;-91
2022/08/06 10:22:06;;;;;;;3.58;3.28;;;;;;;34.11;28.85;94317.16;5011756;28;20244;-91
2022/08/06 10:24:41;;;;;;;3.45;2.78;;;;;;;34.64;28.06;94318.19;5011270;28;20636;-91
2022/08/06 10:27:10;;;;;;;3.42;3.13;;;;;;;34.50;28.14;94306.50;5012079;28;20843;-92
2022/08/06 10:29:41;;;;;;;3.20;2.90;;;;;;;33.58;29.34;94302.47;5011002;28;20350;-90
2022/08/06 10:32:19;;;;;;;3.55;3.25;;;;;;;33.10;29.70;94325.84;4999405;28;20734;-92
2022/08/06 10:34:50;;;;;;;3.75;3.17;;;;;;;32.23;30.43;94307.44;5013058;28;20241;-92
2022/08/06 10:37:19;;;;;;;3.80;3.22;;;;;;;32.07;30.70;94308.56;5012350;28;20208;-91
2022/08/06 10:39:48;;;;;;;5.90;3.10;;;;;;;32.28;30.47;94334.03;5011162;28;20286;-92
2022/08/06 10:42:16;;;;;;;3.50;3.20;;;;;;;32.61;30.40;94346.00;5011933;28;20205;-93
2022/08/06 10:44:45;;;;;;;4.70;3.10;;;;;;;33.04;29.99;94298.94;5011897;28;20268;-91
2022/08/06 10:47:14;;;;;;;3.65;3.22;;;;;;;33.87;29.76;94342.59;5000299;28;20281;-93
2022/08/06 10:49:43;;;;;;;3.65;3.35;;;;;;;32.98;29.85;94296.00;5009011;28;20320;-91
2022/08/06 10:52:11;;;;;;;3.40;2.58;;;;;;;32.92;29.85;94326.00;5011601;28;20213;-91
2022/08/06 10:54:40;;;;;;;3.40;3.10;;;;;;;33.29;30.34;94311.66;5012536;28;20201;-92
2022/08/06 10:57:08;;;;;;;3.50;3.13;;;;;;;33.29;30.83;94315.25;5019405;28;20209;-91
2022/08/06 10:59:35;;;;;;;5.20;3.80;;;;;;;33.62;29.82;94331.94;5024901;28;20208;-91
2022/08/06 11:02:11;;;;;;;5.82;3.38;;;;;;;33.12;29.26;94289.63;5031402;28;20228;-91
2022/08/06 11:04:48;;;;;;;3.28;2.97;;;;;;;33.54;28.95;94291.41;5019901;28;20208;-90
2022/08/06 11:07:47;;;;;;;3.38;3.08;;;;;;;33.51;29.17;94326.09;5023613;28;20229;-92
2022/08/06 11:10:34;;;;;;;3.08;2.80;;;;;;;33.59;29.28;94316.03;5011028;28;20233;-92
2022/08/06 11:13:12;;;;;;;3.55;3.25;;;;;;;33.05;29.59;94281.59;5006255;28;20217;-93
2022/08/06 11:15:41;;;;;;;3.05;2.75;;;;;;;32.81;29.51;94298.47;5017270;28;20243;-94
2022/08/06 11:18:10;;;;;;;3.47;2.90;;;;;;;32.65;29.29;94304.53;5017812;28;20201;-93
2022/08/06 11:20:43;;;;;;;3.17;2.88;;;;;;;33.18;29.17;94282.09;5016992;28;20570;-91
2022/08/06 11:23:25;;;;;;;3.33;3.00;;;;;;;33.06;29.79;94291.56;5016837;28;20581;-92
2022/08/06 11:25:54;;;;;;;2.95;2.72;;;;;;;33.25;29.08;94319.50;5016358;28;20201;-93
2022/08/06 11:29:01;;;;;;;3.78;2.70;;;;;;;34.23;27.46;94309.66;5014929;28;20255;-92
2022/08/06 11:31:33;;;;;;;2.97;2.67;;;;;;;34.21;27.57;94287.66;5015766;28;20224;-94
2022/08/06 11:34:02;;;;;;;3.30;2.97;;;;;;;34.09;27.61;94265.47;5015034;28;20205;-93
2022/08/06 11:36:53;;;;;;;3.20;2.75;;;;;;;33.84;28.84;94304.22;5015109;28;20208;-93
2022/08/06 11:39:21;;;;;;;2.72;2.53;;;;;;;32.94;30.34;94301.00;5014379;28;20204;-92
2022/08/06 11:41:56;;;;;;;2.90;2.60;;;;;;;31.72;30.76;94294.25;5001807;28;20220;-93
2022/08/06 11:44:31;;;;;;;3.47;2.83;;;;;;;31.81;31.22;94287.84;5002939;28;20223;-91
2022/08/06 11:47:13;;;;;;;3.65;2.70;;;;;;;31.49;31.56;94275.31;5009925;28;20208;-93
2022/08/06 11:49:42;;;;;;;3.20;2.90;;;;;;;31.34;32.23;94277.22;5014042;28;20213;-92
2022/08/06 11:52:10;;;;;;;3.30;3.00;;;;;;;31.18;32.10;94302.75;5013993;28;20231;-92
2022/08/06 11:55:01;;;;;;;3.50;3.20;;;;;;;30.82;32.13;94273.56;5013442;28;20201;-92
2022/08/06 11:57:28;;;;;;;6.07;3.30;;;;;;;30.95;32.21;94293.75;5014986;28;20208;-91
2022/08/06 12:00:13;;;;;;;3.30;3.00;;;;;;;31.81;31.38;94295.47;5013591;28;20651;-92